createdAt,value
2022-10-06T00:01:40.329Z,0.60
2022-10-06T00:04:10.095Z,0.70
2022-10-06T00:06:39.828Z,0.80
2022-10-06T00:09:09.668Z,0.90
2022-10-06T00:11:39.395Z,1.20
2022-10-06T00:14:09.171Z,0.80
2022-10-06T00:16:41.521Z,0.87
2022-10-06T00:19:11.256Z,0.77
2022-10-06T00:21:41.067Z,0.80
2022-10-06T00:24:10.836Z,0.60
2022-10-06T00:26:40.618Z,0.80
2022-10-06T00:29:11.757Z,0.80
2022-10-06T00:31:45.160Z,1.17
2022-10-06T00:34:14.879Z,0.90
2022-10-06T00:36:44.607Z,0.70
2022-10-06T00:39:14.382Z,0.80
2022-10-06T00:41:44.099Z,0.80
2022-10-06T00:44:13.850Z,0.80
2022-10-06T00:46:48.335Z,0.80
2022-10-06T00:49:21.528Z,0.70
2022-10-06T00:51:54.904Z,1.20
2022-10-06T00:54:24.852Z,0.90
2022-10-06T00:56:55.335Z,0.77
2022-10-06T00:59:25.095Z,0.70
2022-10-06T01:02:04.763Z,0.90
2022-10-06T01:04:36.518Z,1.00
2022-10-06T01:07:06.912Z,0.73
2022-10-06T01:09:37.909Z,0.83
2022-10-06T01:12:10.925Z,0.70
2022-10-06T01:14:42.386Z,0.50
2022-10-06T01:17:21.106Z,0.77
2022-10-06T01:19:54.013Z,0.77
2022-10-06T01:22:31.898Z,0.70
2022-10-06T01:25:02.715Z,0.80
2022-10-06T01:27:34.765Z,0.70
2022-10-06T01:30:05.248Z,0.70
2022-10-06T01:32:37.941Z,0.80
2022-10-06T01:35:10.946Z,0.90
2022-10-06T01:37:44.758Z,0.80
2022-10-06T01:40:14.638Z,0.70
2022-10-06T01:42:44.381Z,0.90
2022-10-06T01:45:14.111Z,0.93
2022-10-06T01:47:43.848Z,1.00
2022-10-06T01:50:14.310Z,0.80
2022-10-06T01:52:47.567Z,0.70
2022-10-06T01:55:17.677Z,0.80
2022-10-06T01:57:47.730Z,0.80
2022-10-06T02:00:20.026Z,1.10
2022-10-06T02:02:50.884Z,1.30
2022-10-06T02:05:20.926Z,1.47
2022-10-06T02:07:57.159Z,0.90
2022-10-06T02:10:27.086Z,1.40
2022-10-06T02:12:57.522Z,1.17
2022-10-06T02:15:28.583Z,1.20
2022-10-06T02:17:58.321Z,1.17
2022-10-06T02:20:30.439Z,1.30
2022-10-06T02:23:02.863Z,1.53
2022-10-06T02:25:33.102Z,1.20
2022-10-06T02:28:02.907Z,1.40
2022-10-06T02:30:33.087Z,1.53
2022-10-06T02:33:03.043Z,1.30
2022-10-06T02:35:33.093Z,1.30
2022-10-06T02:38:05.602Z,1.20
2022-10-06T02:40:35.671Z,2.00
2022-10-06T02:43:05.426Z,1.57
2022-10-06T02:45:35.233Z,1.70
2022-10-06T02:48:05.031Z,1.90
2022-10-06T02:50:35.698Z,1.13
2022-10-06T02:53:09.804Z,1.80
2022-10-06T02:55:39.602Z,1.57
2022-10-06T02:58:11.359Z,1.90
2022-10-06T03:00:41.213Z,1.80
2022-10-06T03:03:11.006Z,1.87
2022-10-06T03:05:40.756Z,2.37
2022-10-06T03:08:13.499Z,1.87
2022-10-06T03:10:43.335Z,2.70
2022-10-06T03:13:13.108Z,2.27
2022-10-06T03:15:43.389Z,1.60
2022-10-06T03:18:13.395Z,1.70
2022-10-06T03:20:43.126Z,2.43
2022-10-06T03:23:15.567Z,1.93
2022-10-06T03:25:45.413Z,2.20
2022-10-06T03:28:15.230Z,2.43
2022-10-06T03:30:45.043Z,2.00
2022-10-06T03:33:14.784Z,1.83
2022-10-06T03:35:44.586Z,1.97
2022-10-06T03:38:16.960Z,1.70
2022-10-06T03:40:46.680Z,2.60
2022-10-06T03:43:16.687Z,2.43
2022-10-06T03:45:46.551Z,2.30
2022-10-06T03:48:16.303Z,2.63
2022-10-06T03:50:46.125Z,2.53
2022-10-06T03:53:18.896Z,2.10
2022-10-06T03:55:48.717Z,2.40
2022-10-06T03:58:19.809Z,2.13
2022-10-06T04:00:50.107Z,2.33
2022-10-06T04:03:22.435Z,2.47
2022-10-06T04:05:57.480Z,2.80
2022-10-06T04:08:33.579Z,2.93
2022-10-06T04:11:11.285Z,2.43
2022-10-06T04:13:41.752Z,3.00
2022-10-06T04:16:14.124Z,2.80
2022-10-06T04:18:46.053Z,2.07
2022-10-06T04:21:16.597Z,2.60
2022-10-06T04:23:50.226Z,2.67
2022-10-06T04:26:23.849Z,2.20
2022-10-06T04:28:57.177Z,2.53
2022-10-06T04:31:32.900Z,2.13
2022-10-06T04:34:04.345Z,2.50
2022-10-06T04:36:38.247Z,2.43
2022-10-06T04:39:13.475Z,2.30
2022-10-06T04:41:48.993Z,2.63
2022-10-06T04:44:26.236Z,2.83
2022-10-06T04:47:01.350Z,2.97
2022-10-06T04:49:32.210Z,3.10
2022-10-06T04:52:02.227Z,2.67
2022-10-06T04:54:38.626Z,2.70
2022-10-06T04:57:10.402Z,2.53
2022-10-06T04:59:53.431Z,2.60
2022-10-06T05:02:25.706Z,2.53
2022-10-06T05:04:59.254Z,2.97
2022-10-06T05:07:29.125Z,2.73
2022-10-06T05:10:03.194Z,3.13
2022-10-06T05:12:35.124Z,2.83
2022-10-06T05:15:09.736Z,2.80
2022-10-06T05:17:40.784Z,2.97
2022-10-06T05:20:13.701Z,2.90
2022-10-06T05:22:45.783Z,2.90
2022-10-06T05:25:19.348Z,2.70
2022-10-06T05:27:50.424Z,2.50
2022-10-06T05:30:21.226Z,2.80
2022-10-06T05:32:54.855Z,2.70
2022-10-06T05:35:24.688Z,2.07
2022-10-06T05:37:57.507Z,2.70
2022-10-06T05:40:30.923Z,2.60
2022-10-06T05:43:02.026Z,2.80
2022-10-06T05:45:33.044Z,3.60
2022-10-06T05:48:03.960Z,3.33
2022-10-06T05:50:34.983Z,2.60
2022-10-06T05:53:06.437Z,2.30
2022-10-06T05:55:39.906Z,3.60
2022-10-06T05:58:11.312Z,3.10
2022-10-06T06:00:43.987Z,3.87
2022-10-06T06:03:14.792Z,2.93
2022-10-06T06:05:45.903Z,3.47
2022-10-06T06:08:16.689Z,3.03
2022-10-06T06:10:49.938Z,2.80
2022-10-06T06:13:22.696Z,3.40
2022-10-06T06:16:09.257Z,4.17
2022-10-06T06:18:40.584Z,3.53
2022-10-06T06:21:13.536Z,3.70
2022-10-06T06:23:47.078Z,2.43
2022-10-06T06:26:23.583Z,3.00
2022-10-06T06:28:57.316Z,2.70
2022-10-06T06:31:29.889Z,2.70
2022-10-06T06:34:04.839Z,2.80
2022-10-06T06:36:36.899Z,2.47
2022-10-06T06:39:13.602Z,3.17
2022-10-06T06:41:48.912Z,3.20
2022-10-06T06:44:43.143Z,2.87
2022-10-06T06:47:26.741Z,3.00
2022-10-06T06:49:58.909Z,2.20
2022-10-06T06:52:30.116Z,2.47
2022-10-06T06:55:00.736Z,2.50
2022-10-06T06:57:33.634Z,3.43
2022-10-06T07:00:08.355Z,3.00
2022-10-06T07:02:40.954Z,2.80
2022-10-06T07:05:12.409Z,3.40
2022-10-06T07:07:44.416Z,2.80
2022-10-06T07:10:15.252Z,3.37
2022-10-06T07:12:48.821Z,3.10
2022-10-06T07:15:33.923Z,3.27
2022-10-06T07:18:18.817Z,2.83
2022-10-06T07:21:01.277Z,3.17
2022-10-06T07:23:50.138Z,2.90
2022-10-06T07:26:24.235Z,3.23
2022-10-06T07:29:00.085Z,2.50
2022-10-06T07:31:33.603Z,2.87
2022-10-06T07:34:06.552Z,3.87
2022-10-06T07:36:38.380Z,3.20
2022-10-06T07:39:11.243Z,3.23
2022-10-06T07:41:42.381Z,2.63
2022-10-06T07:44:15.773Z,2.97
2022-10-06T07:46:48.627Z,3.50
2022-10-06T07:49:22.727Z,3.07
2022-10-06T07:51:53.745Z,3.70
2022-10-06T07:54:27.451Z,3.80
2022-10-06T07:57:16.573Z,2.33
2022-10-06T07:59:48.894Z,3.00
2022-10-06T08:02:20.383Z,2.67
2022-10-06T08:04:50.205Z,2.73
2022-10-06T08:07:20.992Z,3.77
2022-10-06T08:09:54.733Z,3.23
2022-10-06T08:12:38.042Z,3.00
2022-10-06T08:15:13.807Z,3.40
2022-10-06T08:17:44.913Z,3.13
2022-10-06T08:20:17.263Z,3.87
2022-10-06T08:22:50.652Z,2.90
2022-10-06T08:25:21.370Z,3.83
2022-10-06T08:27:53.610Z,3.63
2022-10-06T08:30:27.402Z,2.90
2022-10-06T08:32:59.231Z,3.23
2022-10-06T08:35:30.521Z,2.67
2022-10-06T08:38:02.432Z,3.47
2022-10-06T08:40:34.545Z,2.80
2022-10-06T08:43:06.381Z,3.30
2022-10-06T08:45:45.477Z,3.60
2022-10-06T08:48:21.388Z,2.53
2022-10-06T08:51:01.974Z,3.30
2022-10-06T08:53:40.420Z,3.70
2022-10-06T08:56:18.328Z,3.23
2022-10-06T08:58:55.728Z,3.40
2022-10-06T09:01:33.699Z,2.73
2022-10-06T09:04:08.096Z,3.17
2022-10-06T09:06:49.547Z,3.30
2022-10-06T09:09:30.632Z,3.30
2022-10-06T09:12:10.230Z,3.27
2022-10-06T09:14:45.761Z,3.60
2022-10-06T09:17:26.216Z,2.90
2022-10-06T09:20:02.828Z,3.23
2022-10-06T09:22:34.505Z,2.97
2022-10-06T09:25:18.111Z,3.40
2022-10-06T09:27:51.677Z,2.73
2022-10-06T09:30:22.841Z,3.10
2022-10-06T09:33:00.587Z,2.93
2022-10-06T09:35:31.983Z,2.93
2022-10-06T09:38:08.591Z,2.90
2022-10-06T09:40:44.434Z,3.10
2022-10-06T09:43:25.560Z,3.10
2022-10-06T09:45:58.284Z,2.87
2022-10-06T09:48:30.637Z,2.00
2022-10-06T09:51:15.020Z,3.00
2022-10-06T09:54:07.745Z,3.30
2022-10-06T09:56:37.485Z,2.73
2022-10-06T09:59:17.690Z,2.30
2022-10-06T10:01:55.278Z,3.17
2022-10-06T10:04:30.416Z,3.13
2022-10-06T10:07:16.621Z,3.47
2022-10-06T10:09:46.404Z,2.20
2022-10-06T10:12:31.595Z,2.97
2022-10-06T10:15:04.557Z,2.53
2022-10-06T10:17:47.408Z,3.40
2022-10-06T10:20:37.497Z,2.40
2022-10-06T10:23:21.135Z,2.37
2022-10-06T10:26:04.514Z,3.20
2022-10-06T10:28:56.359Z,2.83
2022-10-06T10:31:39.477Z,2.87
2022-10-06T10:34:24.312Z,2.43
2022-10-06T10:37:00.195Z,2.63
2022-10-06T10:39:36.263Z,2.33
2022-10-06T10:42:15.436Z,2.40
2022-10-06T10:44:53.291Z,2.20
2022-10-06T10:47:28.597Z,2.43
2022-10-06T10:50:07.319Z,3.00
2022-10-06T10:52:44.082Z,3.80
2022-10-06T10:55:27.095Z,2.83
2022-10-06T10:58:01.166Z,3.03
2022-10-06T11:00:35.428Z,2.77
2022-10-06T11:03:05.403Z,2.13
2022-10-06T11:05:50.399Z,2.37
2022-10-06T11:08:30.660Z,2.63
2022-10-06T11:11:03.590Z,2.10
2022-10-06T11:13:41.419Z,2.20
2022-10-06T11:16:21.616Z,3.30
2022-10-06T11:19:14.821Z,2.03
2022-10-06T11:21:54.762Z,1.90
2022-10-06T11:24:38.351Z,2.20
2022-10-06T11:27:20.873Z,2.40
2022-10-06T11:30:05.317Z,1.80
2022-10-06T11:32:49.971Z,2.57
2022-10-06T11:35:23.253Z,2.70
2022-10-06T11:38:00.097Z,2.13
2022-10-06T11:40:48.036Z,2.20
2022-10-06T11:43:26.246Z,2.17
2022-10-06T11:46:04.580Z,1.87
2022-10-06T11:48:36.157Z,2.17
2022-10-06T11:51:33.327Z,1.77
2022-10-06T11:54:05.821Z,2.37
2022-10-06T11:56:42.511Z,2.53
2022-10-06T11:59:25.903Z,2.07
2022-10-06T12:01:58.777Z,2.00
2022-10-06T12:04:29.666Z,3.53
2022-10-06T12:07:08.308Z,1.90
2022-10-06T12:09:52.646Z,2.27
2022-10-06T12:13:06.881Z,2.40
2022-10-06T12:19:02.411Z,2.13
2022-10-06T12:21:46.763Z,1.87
2022-10-06T12:24:27.683Z,1.80
2022-10-06T12:27:13.705Z,2.10
2022-10-06T12:29:52.994Z,2.00
2022-10-06T12:32:40.273Z,1.63
2022-10-06T12:35:24.701Z,2.37
2022-10-06T12:37:55.422Z,2.07
2022-10-06T12:40:58.057Z,1.97
2022-10-06T12:43:37.137Z,1.80
2022-10-06T12:46:16.891Z,2.17
2022-10-06T12:48:56.403Z,1.93
2022-10-06T12:54:27.255Z,1.83
2022-10-06T12:57:02.080Z,2.30
2022-10-06T12:59:34.995Z,1.97
2022-10-06T13:02:13.199Z,1.70
2022-10-06T13:04:45.734Z,2.20
2022-10-06T13:07:20.840Z,3.07
2022-10-06T13:09:52.834Z,2.20
2022-10-06T13:12:26.254Z,2.03
2022-10-06T13:15:29.578Z,2.50
2022-10-06T13:18:12.709Z,2.00
2022-10-06T13:20:45.535Z,2.20
2022-10-06T13:23:28.708Z,2.43
2022-10-06T13:26:00.596Z,2.97
2022-10-06T13:28:42.784Z,2.33
2022-10-06T13:31:20.810Z,2.40
2022-10-06T13:33:57.178Z,2.60
2022-10-06T13:36:28.912Z,2.03
2022-10-06T13:39:00.100Z,2.20
2022-10-06T13:41:32.930Z,2.10
2022-10-06T13:44:07.230Z,2.10
2022-10-06T13:46:42.437Z,2.10
2022-10-06T13:49:21.540Z,1.93
2022-10-06T13:51:56.891Z,3.00
2022-10-06T13:54:32.174Z,3.00
2022-10-06T13:57:02.078Z,2.80
2022-10-06T13:59:38.509Z,2.17
2022-10-06T14:02:28.190Z,1.80
2022-10-06T14:05:29.946Z,2.13
2022-10-06T14:08:05.567Z,2.20
2022-10-06T14:10:47.456Z,2.40
2022-10-06T14:13:21.525Z,1.80
2022-10-06T14:15:54.875Z,2.17
2022-10-06T14:18:28.054Z,1.40
2022-10-06T14:21:01.607Z,1.67
2022-10-06T14:23:46.120Z,2.33
2022-10-06T14:26:17.593Z,2.20
2022-10-06T14:28:54.160Z,2.50
2022-10-06T14:31:25.039Z,2.20
2022-10-06T14:33:57.783Z,2.00
2022-10-06T14:36:33.619Z,1.97
2022-10-06T14:39:05.295Z,1.80
2022-10-06T14:41:37.346Z,2.30
2022-10-06T14:44:11.482Z,2.40
2022-10-06T14:46:43.975Z,2.37
2022-10-06T14:49:15.168Z,2.10
2022-10-06T14:51:47.691Z,1.97
2022-10-06T14:54:18.123Z,1.90
2022-10-06T14:56:52.285Z,1.80
2022-10-06T14:59:24.790Z,2.20
2022-10-06T15:01:55.600Z,2.90
2022-10-06T15:04:28.015Z,1.93
2022-10-06T15:07:13.829Z,2.20
2022-10-06T15:09:45.391Z,2.50
2022-10-06T15:12:17.860Z,2.03
2022-10-06T15:14:48.667Z,2.57
2022-10-06T15:17:19.416Z,1.80
2022-10-06T15:19:49.476Z,1.80
2022-10-06T15:22:22.783Z,1.90
2022-10-06T15:24:55.842Z,2.03
2022-10-06T15:30:12.320Z,2.50
2022-10-06T15:32:43.285Z,2.30
2022-10-06T15:35:13.022Z,1.70
2022-10-06T15:37:45.423Z,2.40
2022-10-06T15:40:15.200Z,2.47
2022-10-06T15:42:45.003Z,2.50
2022-10-06T15:45:16.991Z,2.60
2022-10-06T15:47:48.443Z,2.10
2022-10-06T15:50:19.371Z,1.77
2022-10-06T15:52:52.034Z,2.43
2022-10-06T15:55:22.731Z,1.77
2022-10-06T15:57:53.488Z,3.17
2022-10-06T16:00:24.199Z,1.80
2022-10-06T16:02:55.969Z,2.07
2022-10-06T16:05:38.986Z,1.90
2022-10-06T16:08:12.347Z,1.93
2022-10-06T16:10:43.011Z,1.70
2022-10-06T16:13:13.843Z,2.27
2022-10-06T16:15:45.697Z,2.33
2022-10-06T16:18:15.478Z,2.10
2022-10-06T16:20:45.245Z,2.20
2022-10-06T16:23:18.590Z,1.93
2022-10-06T16:25:49.478Z,2.00
2022-10-06T16:28:19.401Z,2.37
2022-10-06T16:30:57.228Z,1.80
2022-10-06T16:33:28.099Z,2.47
2022-10-06T16:35:58.347Z,1.80
2022-10-06T16:38:31.723Z,2.40
2022-10-06T16:41:02.867Z,2.03
2022-10-06T16:43:34.002Z,1.97
2022-10-06T16:46:06.424Z,2.80
2022-10-06T16:48:39.618Z,2.07
2022-10-06T16:51:11.408Z,2.23
2022-10-06T16:53:48.979Z,2.30
2022-10-06T16:56:20.581Z,2.90
2022-10-06T16:58:53.510Z,2.80
2022-10-06T17:01:25.422Z,2.90
2022-10-06T17:04:00.249Z,2.07
2022-10-06T17:06:30.051Z,1.83
2022-10-06T17:09:02.612Z,1.93
2022-10-06T17:11:32.425Z,2.33
2022-10-06T17:14:02.248Z,1.97
2022-10-06T17:16:34.483Z,1.87
2022-10-06T17:19:04.978Z,2.73
2022-10-06T17:21:55.689Z,2.60
2022-10-06T17:24:28.794Z,3.40
2022-10-06T17:27:01.102Z,2.30
2022-10-06T17:29:30.941Z,2.47
2022-10-06T17:32:02.736Z,1.67
2022-10-06T17:34:34.275Z,2.07
2022-10-06T17:37:05.155Z,1.90
2022-10-06T17:39:38.502Z,2.10
2022-10-06T17:42:08.944Z,2.37
2022-10-06T17:44:39.722Z,2.60
2022-10-06T17:47:12.635Z,1.97
2022-10-06T17:49:42.446Z,2.50
2022-10-06T17:52:12.406Z,2.37
2022-10-06T17:54:46.447Z,2.30
2022-10-06T17:57:16.293Z,2.17
2022-10-06T17:59:47.107Z,2.37
2022-10-06T18:02:17.125Z,2.80
2022-10-06T18:04:47.549Z,1.80
2022-10-06T18:07:18.294Z,3.07
2022-10-06T18:10:10.794Z,2.63
2022-10-06T18:12:38.544Z,2.70
2022-10-06T18:15:11.077Z,2.73
2022-10-06T18:17:42.362Z,3.00
2022-10-06T18:20:12.456Z,3.00
2022-10-06T18:22:43.833Z,2.70
2022-10-06T18:25:17.542Z,2.27
2022-10-06T18:27:49.244Z,2.60
2022-10-06T18:30:19.457Z,2.23
2022-10-06T18:38:31.516Z,3.23
2022-10-06T18:41:05.783Z,2.90
2022-10-06T18:43:36.651Z,2.70
2022-10-06T18:46:21.704Z,2.50
2022-10-06T18:48:58.662Z,3.50
2022-10-06T18:51:37.393Z,4.13
2022-10-06T18:54:10.967Z,4.30
2022-10-06T18:56:49.982Z,3.77
2022-10-06T18:59:23.389Z,3.47
2022-10-06T19:01:54.255Z,3.00
2022-10-06T19:04:27.119Z,2.83
2022-10-06T19:06:58.452Z,3.17
2022-10-06T19:09:29.362Z,2.50
2022-10-06T19:12:02.758Z,2.63
2022-10-06T19:14:35.942Z,2.70
2022-10-06T19:17:12.699Z,2.80
2022-10-06T19:19:45.637Z,2.77
2022-10-06T19:22:17.239Z,2.87
2022-10-06T19:24:48.656Z,3.63
2022-10-06T19:27:25.133Z,3.10
2022-10-06T19:29:57.748Z,2.57
2022-10-06T19:32:32.117Z,3.40
2022-10-06T19:35:09.223Z,2.73
2022-10-06T19:37:40.935Z,3.17
2022-10-06T19:40:11.555Z,3.53
2022-10-06T19:42:48.738Z,2.70
2022-10-06T19:45:21.052Z,3.53
2022-10-06T19:47:52.189Z,2.80
2022-10-06T19:50:23.122Z,2.97
2022-10-06T19:52:53.940Z,3.20
2022-10-06T19:55:26.037Z,3.27
2022-10-06T19:58:00.101Z,3.30
2022-10-06T20:00:31.358Z,3.00
2022-10-06T20:03:01.115Z,2.97
2022-10-06T20:05:31.864Z,2.40
2022-10-06T20:08:04.002Z,2.90
2022-10-06T20:10:34.880Z,3.17
2022-10-06T20:13:09.878Z,3.40
2022-10-06T20:15:40.706Z,4.27
2022-10-06T20:18:12.112Z,3.00
2022-10-06T20:20:42.935Z,3.13
2022-10-06T20:23:13.781Z,3.03
2022-10-06T20:25:44.569Z,2.87
2022-10-06T20:28:17.107Z,3.47
2022-10-06T20:30:50.098Z,3.30
2022-10-06T20:33:22.073Z,3.30
2022-10-06T20:35:51.828Z,3.60
2022-10-06T20:38:43.200Z,3.43
2022-10-06T20:41:10.381Z,3.53
2022-10-06T20:43:43.726Z,3.77
2022-10-06T20:46:14.797Z,3.60
2022-10-06T20:48:45.689Z,3.90
2022-10-06T20:51:16.500Z,3.87
2022-10-06T20:53:47.558Z,3.47
2022-10-06T20:56:18.159Z,3.53
2022-10-06T20:58:51.726Z,3.43
2022-10-06T21:01:24.769Z,3.93
2022-10-06T21:03:56.108Z,4.30
2022-10-06T21:06:27.249Z,3.73
2022-10-06T21:08:58.498Z,4.17
2022-10-06T21:11:29.658Z,3.30
2022-10-06T21:14:02.390Z,4.20
2022-10-06T21:16:37.084Z,4.30
2022-10-06T21:19:11.011Z,4.30
2022-10-06T21:21:41.236Z,4.00
2022-10-06T21:24:12.768Z,4.60
2022-10-06T21:26:42.999Z,4.03
2022-10-06T21:29:16.967Z,3.90
2022-10-06T21:31:47.768Z,5.00
2022-10-06T21:34:19.047Z,4.03
2022-10-06T21:36:49.000Z,4.30
2022-10-06T21:39:20.280Z,4.10
2022-10-06T21:41:50.354Z,3.90
2022-10-06T21:44:24.020Z,3.80
2022-10-06T21:46:55.620Z,4.03
2022-10-06T21:49:28.506Z,3.53
2022-10-06T21:52:04.871Z,3.80
2022-10-06T21:54:35.931Z,3.00
2022-10-06T21:57:08.267Z,3.80
2022-10-06T21:59:40.914Z,3.40
2022-10-06T22:02:12.041Z,3.50
2022-10-06T22:04:42.201Z,4.17
2022-10-06T22:07:12.247Z,4.07
2022-10-06T22:09:43.310Z,2.90
2022-10-06T22:12:14.392Z,3.80
2022-10-06T22:14:48.182Z,3.10
2022-10-06T22:17:18.260Z,3.13
2022-10-06T22:19:48.283Z,3.77
2022-10-06T22:22:18.461Z,3.10
2022-10-06T22:24:49.581Z,3.47
2022-10-06T22:27:19.653Z,3.40
2022-10-06T22:29:52.291Z,3.27
2022-10-06T22:32:23.459Z,2.70
2022-10-06T22:34:54.152Z,3.00
2022-10-06T22:37:25.319Z,3.27
2022-10-06T22:39:55.380Z,2.67
2022-10-06T22:42:25.428Z,2.80
2022-10-06T22:44:58.020Z,2.90
2022-10-06T22:47:28.015Z,2.80
2022-10-06T22:49:58.092Z,2.70
2022-10-06T22:52:28.073Z,2.97
2022-10-06T22:54:58.109Z,3.50
2022-10-06T22:57:28.121Z,3.30
2022-10-06T23:00:00.710Z,3.50
2022-10-06T23:02:30.700Z,3.60
2022-10-06T23:05:00.699Z,2.63
2022-10-06T23:07:31.420Z,2.50
2022-10-06T23:10:01.505Z,2.53
2022-10-06T23:12:31.670Z,2.57
2022-10-06T23:15:04.319Z,3.30
2022-10-06T23:17:34.338Z,3.17
2022-10-06T23:20:04.721Z,3.80
2022-10-06T23:22:34.772Z,3.20
2022-10-06T23:25:04.932Z,3.23
2022-10-06T23:27:35.141Z,2.90
2022-10-06T23:30:09.738Z,2.97
2022-10-06T23:32:40.985Z,3.13
2022-10-06T23:35:11.716Z,3.50
2022-10-06T23:37:42.216Z,3.00
2022-10-06T23:40:13.623Z,2.87
2022-10-06T23:42:43.680Z,2.20
2022-10-06T23:45:16.536Z,2.63
2022-10-06T23:47:46.862Z,2.80
2022-10-06T23:50:17.057Z,3.20
2022-10-06T23:52:47.062Z,2.30
2022-10-06T23:55:17.239Z,3.23
2022-10-06T23:57:47.293Z,3.20
